createdAt,value
2022-10-28T00:00:42.933Z,86.24
2022-10-28T00:11:18.510Z,86.08
2022-10-28T00:21:25.049Z,85.91
2022-10-28T00:31:30.652Z,85.70
2022-10-28T00:41:37.063Z,86.03
2022-10-28T00:51:41.485Z,86.66
2022-10-28T01:01:45.628Z,86.81
2022-10-28T01:11:58.349Z,86.59
2022-10-28T01:22:10.779Z,86.75
2022-10-28T01:32:39.427Z,87.69
2022-10-28T01:42:55.368Z,88.35
2022-10-28T01:53:04.157Z,88.99
2022-10-28T02:03:09.858Z,89.02
2022-10-28T02:13:16.391Z,89.48
2022-10-28T02:23:56.074Z,89.05
2022-10-28T02:34:07.632Z,89.22
2022-10-28T02:44:16.097Z,89.00
2022-10-28T02:54:25.493Z,89.23
2022-10-28T03:04:29.286Z,89.03
2022-10-28T03:14:33.145Z,88.26
2022-10-28T03:24:36.900Z,88.40
2022-10-28T03:34:40.786Z,88.27
2022-10-28T03:44:44.346Z,88.37
2022-10-28T03:54:48.306Z,87.73
2022-10-28T04:04:52.479Z,86.51
2022-10-28T04:14:56.558Z,85.57
2022-10-28T04:25:00.538Z,84.72
2022-10-28T04:35:04.603Z,83.87
2022-10-28T04:45:09.644Z,83.69
2022-10-28T04:55:13.379Z,84.37
2022-10-28T05:05:18.253Z,85.26
2022-10-28T05:15:22.233Z,84.40
2022-10-28T05:25:26.802Z,84.33
2022-10-28T05:35:31.304Z,84.27
2022-10-28T05:45:35.382Z,84.65
2022-10-28T05:55:40.929Z,85.76
2022-10-28T06:05:47.818Z,86.21
2022-10-28T06:15:54.357Z,86.77
2022-10-28T06:26:00.638Z,88.70
2022-10-28T06:36:04.935Z,89.61
2022-10-28T06:46:08.647Z,90.49
2022-10-28T06:56:14.247Z,91.46
2022-10-28T07:06:18.432Z,93.48
2022-10-28T07:16:22.609Z,93.61
2022-10-28T07:26:27.208Z,93.21
2022-10-28T07:36:31.186Z,92.79
2022-10-28T07:46:35.983Z,93.60
2022-10-28T07:56:39.744Z,94.13
2022-10-28T08:06:44.708Z,94.41
2022-10-28T08:16:48.370Z,94.82
2022-10-28T08:26:53.595Z,94.66
2022-10-28T08:36:58.223Z,95.07
2022-10-28T08:47:15.529Z,95.15
2022-10-28T08:57:31.373Z,95.32
2022-10-28T09:07:37.449Z,95.33
2022-10-28T09:17:50.277Z,94.46
2022-10-28T09:28:02.244Z,93.66
2022-10-28T09:38:27.078Z,91.97
2022-10-28T09:48:37.920Z,90.37
2022-10-28T09:58:48.020Z,88.58
2022-10-28T10:08:53.333Z,86.76
2022-10-28T10:19:00.045Z,85.25
2022-10-28T10:29:04.031Z,83.92
2022-10-28T10:39:34.300Z,82.76
2022-10-28T10:49:38.271Z,81.00
2022-10-28T10:59:47.327Z,80.08
2022-10-28T11:09:52.358Z,79.19
2022-10-28T11:19:59.114Z,77.75
2022-10-28T11:30:04.189Z,76.15
2022-10-28T11:40:28.114Z,74.86
2022-10-28T11:51:10.975Z,74.55
2022-10-28T12:01:50.329Z,73.85
2022-10-28T12:12:22.777Z,72.55
2022-10-28T12:22:28.697Z,71.99
2022-10-28T12:32:35.885Z,70.83
2022-10-28T12:43:01.296Z,70.17
2022-10-28T12:53:06.318Z,69.48
2022-10-28T13:03:15.330Z,69.11
2022-10-28T13:13:25.905Z,68.90
2022-10-28T13:24:08.990Z,68.60
2022-10-28T13:34:19.984Z,67.94
2022-10-28T13:44:27.620Z,67.72
2022-10-28T13:54:51.180Z,67.59
2022-10-28T14:05:01.241Z,67.88
2022-10-28T14:15:18.592Z,68.45
2022-10-28T14:25:41.372Z,69.15
2022-10-28T14:35:48.347Z,69.14
2022-10-28T14:46:01.797Z,69.25
2022-10-28T14:56:13.130Z,70.09
2022-10-28T15:06:31.027Z,70.88
2022-10-28T15:16:35.723Z,71.43
2022-10-28T15:26:40.311Z,72.10
2022-10-28T15:36:50.546Z,73.15
2022-10-28T15:46:56.897Z,74.08
2022-10-28T15:57:01.021Z,74.85
2022-10-28T16:07:09.394Z,75.63
2022-10-28T16:17:27.499Z,76.39
2022-10-28T16:27:33.149Z,77.35
2022-10-28T16:37:43.347Z,77.26
2022-10-28T16:47:52.047Z,77.95
2022-10-28T16:57:56.856Z,78.04
2022-10-28T17:08:04.536Z,78.32
2022-10-28T17:18:17.706Z,79.07
2022-10-28T17:28:22.020Z,79.48
2022-10-28T17:38:26.184Z,80.44
2022-10-28T17:48:30.893Z,80.52
2022-10-28T17:58:35.494Z,80.39
2022-10-28T18:08:42.226Z,81.17
2022-10-28T18:18:47.660Z,81.17
2022-10-28T18:28:53.574Z,81.07
2022-10-28T18:38:59.104Z,81.07
2022-10-28T18:49:05.494Z,81.36
2022-10-28T18:59:10.493Z,82.21
2022-10-28T19:09:15.223Z,82.48
2022-10-28T19:19:19.754Z,82.29
2022-10-28T19:29:24.459Z,82.88
2022-10-28T19:39:30.651Z,82.66
2022-10-28T19:49:39.354Z,82.73
2022-10-28T19:59:45.731Z,82.92
2022-10-28T20:09:50.992Z,83.16
2022-10-28T20:19:54.531Z,83.68
2022-10-28T20:30:01.682Z,83.42
2022-10-28T20:40:07.668Z,83.87
2022-10-28T20:50:11.854Z,83.49
2022-10-28T21:00:16.239Z,83.65
2022-10-28T21:10:20.111Z,83.73
2022-10-28T21:20:24.190Z,83.75
2022-10-28T21:30:28.359Z,84.53
2022-10-28T21:40:31.974Z,84.39
2022-10-28T21:50:35.593Z,84.83
2022-10-28T22:00:39.782Z,85.02
2022-10-28T22:10:43.547Z,86.03
2022-10-28T22:20:47.107Z,87.06
2022-10-28T22:30:50.547Z,86.73
2022-10-28T22:41:17.261Z,86.41
2022-10-28T22:51:27.818Z,86.97
2022-10-28T23:01:32.187Z,87.36
2022-10-28T23:11:36.032Z,86.41
2022-10-28T23:21:39.605Z,85.90
2022-10-28T23:31:43.259Z,86.42
2022-10-28T23:41:46.826Z,86.48
2022-10-28T23:51:50.595Z,86.46
